Time;durP1;ratioP1;P1;durP2;ratioP2;P2;SDS_P1;SDS_P2;PMS_P1;PMS_P2;Temp;Humidity;BMP_temperature;BMP_pressure;BME280_temperature;BME280_humidity;BME280_pressure;Samples;Min_cycle;Max_cycle;Signal;HPM_P1;HPM_P2
2022/12/01 00:01:10;;;;;;;9.25;2.10;;;22.00;93.70;;;;;;5054454;28;20734;-87
2022/12/01 00:03:37;;;;;;;8.82;2.38;;;21.90;93.90;;;;;;5067516;28;20386;-87
2022/12/01 00:06:11;;;;;;;6.32;2.10;;;21.90;93.50;;;;;;5067563;28;20409;-87
2022/12/01 00:08:38;;;;;;;10.57;2.30;;;21.90;93.50;;;;;;5055090;28;20923;-89
2022/12/01 00:11:14;;;;;;;14.30;3.03;;;21.80;94.00;;;;;;5065147;28;20381;-88
2022/12/01 00:13:41;;;;;;;11.37;2.43;;;21.70;94.30;;;;;;5049459;28;20402;-87
2022/12/01 00:16:13;;;;;;;6.57;2.15;;;21.80;93.80;;;;;;5067391;28;20393;-88
2022/12/01 00:18:41;;;;;;;8.07;2.10;;;21.80;93.60;;;;;;5068146;28;20374;-90
2022/12/01 00:21:20;;;;;;;9.27;2.35;;;21.80;93.90;;;;;;5052000;28;20386;-89
2022/12/01 00:23:48;;;;;;;7.75;2.30;;;21.80;94.00;;;;;;5039823;28;20398;-87
2022/12/01 00:26:17;;;;;;;14.00;2.60;;;21.80;93.70;;;;;;5066937;28;20448;-88
2022/12/01 00:28:48;;;;;;;9.63;2.33;;;21.80;93.60;;;;;;5067120;28;20415;-90
2022/12/01 00:31:15;;;;;;;22.83;3.45;;;21.70;93.40;;;;;;5067208;28;20378;-91
2022/12/01 00:33:42;;;;;;;10.33;2.20;;;21.60;93.50;;;;;;5067260;28;20378;-87
2022/12/01 00:36:09;;;;;;;7.37;2.30;;;21.60;93.00;;;;;;5067269;28;20869;-88
2022/12/01 00:38:36;;;;;;;9.57;2.25;;;21.40;93.10;;;;;;5067985;28;20388;-88
2022/12/01 00:41:04;;;;;;;7.82;2.20;;;21.40;93.60;;;;;;5068528;28;20420;-90
2022/12/01 00:43:31;;;;;;;8.25;2.45;;;21.40;93.70;;;;;;5068929;28;20422;-92
2022/12/01 00:45:58;;;;;;;7.05;2.10;;;21.30;93.80;;;;;;5054120;28;20385;-85
2022/12/01 00:48:26;;;;;;;8.90;2.20;;;21.30;93.60;;;;;;5067268;28;20453;-87
2022/12/01 00:50:54;;;;;;;8.85;2.60;;;21.10;93.70;;;;;;5066769;28;20381;-89
2022/12/01 00:53:22;;;;;;;8.35;2.22;;;21.00;94.00;;;;;;5067147;28;20374;-88
2022/12/01 00:55:54;;;;;;;8.02;2.28;;;20.90;94.30;;;;;;5062237;28;20384;-86
2022/12/01 00:58:22;;;;;;;8.65;2.40;;;20.90;94.20;;;;;;5057593;28;20393;-85
2022/12/01 01:00:55;;;;;;;6.27;2.13;;;20.80;94.30;;;;;;5066856;28;20378;-87
2022/12/01 01:03:22;;;;;;;9.05;2.58;;;20.70;94.50;;;;;;5067112;28;20410;-89
2022/12/01 01:05:49;;;;;;;9.68;2.55;;;20.70;94.60;;;;;;5067065;28;20382;-83
2022/12/01 01:08:16;;;;;;;7.22;2.40;;;20.70;95.10;;;;;;5060109;28;20376;-88
2022/12/01 01:10:46;;;;;;;10.00;2.38;;;20.60;95.50;;;;;;5063143;28;20385;-84
2022/12/01 01:13:14;;;;;;;10.23;2.80;;;20.40;96.00;;;;;;5065870;28;20801;-87
2022/12/01 01:15:41;;;;;;;12.55;2.58;;;20.30;96.60;;;;;;5080446;28;20428;-85
2022/12/01 01:18:10;;;;;;;9.98;2.28;;;20.20;97.20;;;;;;5078042;28;20427;-90
2022/12/01 01:20:37;;;;;;;8.90;2.50;;;20.10;97.60;;;;;;5059049;28;20415;-88
2022/12/01 01:23:04;;;;;;;8.13;2.27;;;20.00;98.20;;;;;;5070178;28;20423;-94
2022/12/01 01:25:32;;;;;;;8.77;2.35;;;20.00;98.70;;;;;;5053485;28;20942;-88
2022/12/01 01:27:59;;;;;;;9.00;2.50;;;19.90;98.70;;;;;;5071385;28;20434;-88
2022/12/01 01:30:26;;;;;;;10.35;2.72;;;19.90;98.90;;;;;;5056460;28;20451;-90
2022/12/01 01:32:53;;;;;;;10.30;2.40;;;19.90;99.10;;;;;;5070887;28;20387;-91
2022/12/01 01:35:20;;;;;;;8.55;2.60;;;19.90;99.30;;;;;;5056255;28;20370;-92
2022/12/01 01:37:49;;;;;;;8.07;2.45;;;19.90;99.70;;;;;;5052404;28;20374;-92
2022/12/01 01:40:17;;;;;;;7.93;2.43;;;19.90;99.60;;;;;;5070181;28;20457;-90
2022/12/01 01:42:45;;;;;;;9.80;2.50;;;19.90;99.20;;;;;;5069947;28;20382;-91
2022/12/01 01:45:38;;;;;;;11.35;2.47;;;20.00;98.90;;;;;;5051378;28;20804;-91
2022/12/01 01:48:06;;;;;;;10.37;2.60;;;20.00;99.10;;;;;;5058435;28;20382;-92
2022/12/01 01:50:39;;;;;;;7.75;2.38;;;20.00;98.90;;;;;;5070762;28;20374;-88
2022/12/01 01:53:10;;;;;;;7.70;2.13;;;20.10;99.00;;;;;;5070773;28;20694;-92
2022/12/01 01:55:38;;;;;;;8.18;2.30;;;20.20;98.80;;;;;;5071541;28;20444;-88
2022/12/01 01:58:08;;;;;;;8.50;2.20;;;20.30;98.50;;;;;;5070167;28;20392;-89
2022/12/01 02:00:37;;;;;;;9.93;2.50;;;20.40;98.20;;;;;;5070066;28;20906;-88
2022/12/01 02:03:04;;;;;;;8.23;2.25;;;20.40;98.10;;;;;;5070837;28;20414;-88
2022/12/01 02:05:33;;;;;;;9.32;2.58;;;20.50;98.00;;;;;;5070802;28;20459;-87
2022/12/01 02:08:02;;;;;;;9.00;2.17;;;20.60;97.80;;;;;;5043040;28;20397;-89
2022/12/01 02:10:38;;;;;;;8.40;2.55;;;20.90;97.00;;;;;;5070334;28;20394;-90
2022/12/01 02:13:11;;;;;;;6.55;2.10;;;21.10;97.10;;;;;;5042311;28;20409;-91
2022/12/01 02:15:44;;;;;;;7.63;2.10;;;21.30;96.50;;;;;;5057129;28;20459;-87
2022/12/01 02:18:37;;;;;;;11.13;2.58;;;21.50;96.10;;;;;;5036159;28;20816;-90
2022/12/01 02:21:45;;;;;;;10.38;2.22;;;21.70;95.90;;;;;;5065597;28;20397;-88
2022/12/01 02:24:50;;;;;;;5.85;1.90;;;22.00;94.80;;;;;;5048001;28;20901;-90
2022/12/01 02:27:35;;;;;;;9.40;2.20;;;22.30;94.40;;;;;;5043719;28;20460;-91
2022/12/01 02:30:16;;;;;;;9.70;2.45;;;22.80;93.70;;;;;;5055594;28;20379;-87
2022/12/01 02:32:59;;;;;;;8.77;2.05;;;23.10;92.80;;;;;;5068866;28;20396;-89
2022/12/01 02:36:01;;;;;;;10.68;2.28;;;23.40;91.80;;;;;;5069610;28;20378;-86
2022/12/01 02:38:35;;;;;;;7.25;2.38;;;23.80;90.60;;;;;;4987630;28;20384;-89
2022/12/01 02:41:25;;;;;;;6.28;2.45;;;24.30;89.70;;;;;;4979685;28;20465;-89
2022/12/01 02:44:16;;;;;;;6.82;2.17;;;24.80;89.30;;;;;;4982157;28;20766;-89
2022/12/01 02:46:47;;;;;;;5.85;2.20;;;25.40;87.00;;;;;;4987955;28;20388;-89
2022/12/01 02:49:22;;;;;;;7.78;2.30;;;26.00;83.70;;;;;;4991489;28;20381;-90
2022/12/01 02:51:51;;;;;;;7.55;2.30;;;26.70;81.10;;;;;;4991124;28;20422;-87
2022/12/01 02:54:20;;;;;;;6.32;2.00;;;27.00;78.70;;;;;;4978678;28;20944;-85
2022/12/01 02:56:52;;;;;;;5.63;2.30;;;27.30;75.30;;;;;;4990047;28;20397;-88
2022/12/01 02:59:19;;;;;;;5.63;2.13;;;27.70;74.80;;;;;;4982977;28;20401;-87
2022/12/01 03:02:28;;;;;;;6.82;2.17;;;28.00;72.40;;;;;;4979374;28;20393;-90
2022/12/01 03:05:25;;;;;;;6.30;2.13;;;28.10;68.90;;;;;;4977390;28;20419;-83
2022/12/01 03:08:01;;;;;;;8.30;2.33;;;27.70;69.60;;;;;;4988176;28;20420;-88
2022/12/01 03:10:50;;;;;;;8.05;2.47;;;27.40;68.50;;;;;;4987437;28;20381;-88
2022/12/01 03:13:32;;;;;;;5.47;2.13;;;27.10;69.50;;;;;;4975821;28;20901;-90
2022/12/01 03:16:13;;;;;;;7.82;2.40;;;26.50;70.30;;;;;;5051582;28;20391;-86
2022/12/01 03:19:06;;;;;;;8.48;2.30;;;25.80;72.20;;;;;;5068495;28;20366;-90
2022/12/01 03:21:41;;;;;;;7.28;2.00;;;25.50;73.90;;;;;;5067999;28;20382;-90
2022/12/01 03:24:20;;;;;;;8.15;2.30;;;25.40;74.20;;;;;;5068422;28;20405;-85
2022/12/01 03:26:55;;;;;;;6.57;2.13;;;25.50;73.40;;;;;;5068570;28;20420;-84
2022/12/01 03:29:35;;;;;;;5.53;2.00;;;25.30;74.20;;;;;;5068489;28;20920;-86
2022/12/01 03:32:09;;;;;;;5.47;2.30;;;25.10;73.50;;;;;;5069047;28;20409;-87
2022/12/01 03:34:39;;;;;;;6.10;2.10;;;24.70;73.90;;;;;;5069235;28;20383;-84
2022/12/01 03:37:30;;;;;;;9.52;2.50;;;24.40;75.20;;;;;;5069743;28;20936;-86
2022/12/01 03:39:59;;;;;;;7.30;2.10;;;24.00;75.80;;;;;;5053992;28;20874;-88
2022/12/01 03:42:33;;;;;;;6.93;2.20;;;23.80;77.30;;;;;;5071028;28;20370;-88
2022/12/01 03:45:03;;;;;;;7.10;2.08;;;23.70;78.10;;;;;;5055597;28;20400;-88
2022/12/01 03:47:31;;;;;;;10.35;2.45;;;23.50;77.70;;;;;;5067870;28;20449;-88
2022/12/01 03:49:59;;;;;;;6.72;2.15;;;23.60;78.10;;;;;;5070093;28;20432;-87
2022/12/01 03:52:44;;;;;;;5.57;2.10;;;23.70;77.00;;;;;;5073284;28;20396;-91
2022/12/01 03:55:30;;;;;;;8.18;2.22;;;23.70;77.70;;;;;;5057626;28;20518;-89
2022/12/01 03:58:02;;;;;;;10.52;2.40;;;23.60;77.70;;;;;;5043914;28;20408;-87
2022/12/01 04:00:30;;;;;;;7.38;2.20;;;23.60;77.80;;;;;;5069166;28;20380;-91
2022/12/01 04:03:00;;;;;;;8.18;2.22;;;23.60;78.10;;;;;;5069809;28;20398;-91
2022/12/01 04:05:27;;;;;;;8.65;2.10;;;23.70;78.60;;;;;;5067999;28;20405;-86
2022/12/01 04:07:55;;;;;;;8.88;2.47;;;24.10;78.50;;;;;;5068962;28;20370;-89
2022/12/01 04:10:22;;;;;;;7.38;2.17;;;24.60;76.40;;;;;;5069173;28;20378;-88
2022/12/01 04:12:49;;;;;;;8.73;2.22;;;25.40;75.30;;;;;;5068650;28;20765;-89
2022/12/01 04:15:16;;;;;;;7.10;2.30;;;26.10;72.90;;;;;;5067696;28;20373;-87
2022/12/01 04:17:44;;;;;;;6.55;2.08;;;26.50;71.20;;;;;;5054390;28;20429;-90
2022/12/01 04:20:14;;;;;;;7.55;2.40;;;27.10;68.10;;;;;;5049817;28;20424;-92
2022/12/01 04:22:41;;;;;;;6.43;2.17;;;27.70;67.40;;;;;;5065056;28;20456;-89
2022/12/01 04:25:09;;;;;;;7.53;2.17;;;27.80;66.30;;;;;;5067997;28;20402;-88
2022/12/01 04:27:36;;;;;;;5.25;2.05;;;28.30;64.40;;;;;;5058269;28;20372;-85
2022/12/01 04:30:05;;;;;;;5.55;1.98;;;28.70;63.30;;;;;;5062854;28;20389;-90
2022/12/01 04:32:40;;;;;;;10.23;2.20;;;29.00;62.50;;;;;;5058734;28;20786;-85
2022/12/01 04:35:09;;;;;;;5.30;2.05;;;28.70;61.90;;;;;;5065020;28;20408;-84
2022/12/01 04:37:37;;;;;;;7.53;2.20;;;28.30;63.20;;;;;;5072122;28;20413;-85
2022/12/01 04:40:05;;;;;;;6.13;2.13;;;28.00;63.90;;;;;;5068796;28;20382;-89
2022/12/01 04:42:32;;;;;;;10.30;2.30;;;28.00;62.80;;;;;;5063106;28;20433;-88
2022/12/01 04:44:59;;;;;;;6.10;1.90;;;28.00;62.00;;;;;;5060264;28;20408;-85
2022/12/01 04:47:26;;;;;;;6.17;2.20;;;27.90;63.00;;;;;;5061914;28;20385;-88
2022/12/01 04:49:53;;;;;;;5.45;1.92;;;27.70;62.70;;;;;;5049575;28;20408;-87
2022/12/01 04:52:20;;;;;;;8.27;2.08;;;27.40;63.70;;;;;;5063746;28;20383;-85
2022/12/01 04:54:47;;;;;;;7.43;2.10;;;27.10;63.60;;;;;;5040338;28;20389;-85
2022/12/01 04:57:14;;;;;;;5.00;1.90;;;26.70;64.30;;;;;;5070811;28;20390;-91
2022/12/01 04:59:41;;;;;;;6.03;2.00;;;26.30;64.70;;;;;;5071802;28;20435;-83
2022/12/01 05:02:08;;;;;;;5.25;2.00;;;25.70;65.40;;;;;;5056043;28;20414;-90
2022/12/01 05:04:37;;;;;;;6.63;2.10;;;25.30;66.80;;;;;;5048312;28;20425;-90
2022/12/01 05:07:04;;;;;;;6.30;2.20;;;25.10;67.50;;;;;;5057695;28;20394;-88
2022/12/01 05:09:31;;;;;;;7.38;2.00;;;25.00;68.90;;;;;;5051264;28;20811;-85
2022/12/01 05:11:58;;;;;;;6.43;2.15;;;25.00;68.00;;;;;;5058358;28;20489;-89
2022/12/01 05:14:25;;;;;;;6.68;2.20;;;24.70;68.80;;;;;;5060082;28;20465;-88
2022/12/01 05:16:53;;;;;;;5.55;2.00;;;24.70;69.90;;;;;;5064643;28;20413;-89
2022/12/01 05:22:08;;;;;;;5.68;2.03;;;25.20;69.50;;;;;;5059045;28;20423;-90
2022/12/01 05:24:35;;;;;;;5.43;2.00;;;25.60;68.30;;;;;;5049992;28;20489;-89
2022/12/01 05:27:02;;;;;;;8.55;2.38;;;26.00;68.00;;;;;;5064844;28;20841;-85
2022/12/01 05:29:31;;;;;;;8.05;1.90;;;26.40;65.90;;;;;;5070547;28;20814;-89
2022/12/01 05:31:58;;;;;;;7.43;1.97;;;26.30;65.40;;;;;;5069990;28;20445;-88
2022/12/01 05:34:25;;;;;;;7.10;1.80;;;26.10;66.10;;;;;;5071918;28;20719;-88
2022/12/01 05:36:52;;;;;;;6.22;2.10;;;25.70;66.70;;;;;;5070838;28;20464;-83
2022/12/01 05:39:19;;;;;;;6.90;2.25;;;25.50;67.80;;;;;;5070372;28;20406;-86
2022/12/01 05:41:46;;;;;;;4.93;1.85;;;25.40;67.50;;;;;;5064361;28;20404;-85
2022/12/01 05:44:13;;;;;;;8.90;2.00;;;25.10;67.80;;;;;;5070172;28;20402;-85
2022/12/01 05:46:40;;;;;;;7.03;2.17;;;25.00;68.40;;;;;;5070767;28;20771;-87
2022/12/01 05:49:07;;;;;;;6.75;2.13;;;24.60;68.70;;;;;;5070256;28;20838;-89
2022/12/01 05:51:34;;;;;;;5.93;1.88;;;24.40;69.60;;;;;;5063461;28;20498;-86
2022/12/01 05:54:02;;;;;;;8.10;2.10;;;24.20;70.40;;;;;;5052718;28;20910;-86
2022/12/01 05:56:28;;;;;;;6.60;2.22;;;24.10;70.50;;;;;;5050712;28;20467;-84
2022/12/01 05:58:56;;;;;;;6.00;2.07;;;24.00;70.90;;;;;;5049880;28;20411;-85
2022/12/01 06:01:22;;;;;;;4.90;1.73;;;23.90;71.20;;;;;;5064398;28;20478;-86
2022/12/01 06:03:49;;;;;;;6.55;2.08;;;24.00;71.00;;;;;;5054002;28;20392;-89
2022/12/01 06:06:17;;;;;;;6.75;2.15;;;24.10;70.90;;;;;;5044350;28;20388;-88
2022/12/01 06:08:44;;;;;;;8.02;1.92;;;24.10;71.00;;;;;;5067703;28;20370;-86
2022/12/01 06:11:11;;;;;;;5.90;1.83;;;24.10;71.40;;;;;;5064480;28;20396;-87
2022/12/01 06:13:38;;;;;;;4.95;1.90;;;24.30;71.40;;;;;;5059807;28;20940;-86
2022/12/01 06:16:06;;;;;;;5.32;1.88;;;24.40;70.20;;;;;;5062292;28;20392;-87
2022/12/01 06:18:36;;;;;;;5.38;1.85;;;24.50;70.40;;;;;;5057165;28;20890;-81
2022/12/01 06:21:04;;;;;;;7.43;2.13;;;24.50;69.00;;;;;;5052442;28;20479;-83
2022/12/01 06:23:32;;;;;;;6.70;2.00;;;24.50;69.70;;;;;;5055588;28;20845;-86
2022/12/01 06:25:59;;;;;;;6.63;1.97;;;24.30;70.60;;;;;;5058585;28;20380;-83
2022/12/01 06:28:26;;;;;;;6.50;1.88;;;24.50;70.80;;;;;;5050786;28;20735;-86
2022/12/01 06:30:53;;;;;;;5.75;2.00;;;24.60;69.10;;;;;;5040357;28;20395;-84
2022/12/01 06:33:20;;;;;;;4.97;1.98;;;24.70;67.90;;;;;;5051134;28;20432;-85
2022/12/01 06:35:46;;;;;;;6.22;1.92;;;24.70;67.50;;;;;;5061146;28;20393;-90
2022/12/01 06:38:13;;;;;;;6.93;2.13;;;24.40;67.70;;;;;;5057550;28;20387;-86
2022/12/01 06:40:42;;;;;;;5.38;1.90;;;24.30;69.00;;;;;;5057838;28;20471;-87
2022/12/01 06:43:09;;;;;;;6.18;2.55;;;24.10;69.10;;;;;;5064721;28;20380;-85
2022/12/01 06:45:36;;;;;;;53.38;36.28;;;24.00;69.50;;;;;;5056759;28;20421;-85
2022/12/01 06:48:03;;;;;;;21.13;13.02;;;24.00;69.40;;;;;;5065061;28;20764;-89
2022/12/01 06:50:31;;;;;;;37.33;26.67;;;24.10;68.80;;;;;;5060501;28;20388;-87
2022/12/01 06:52:58;;;;;;;56.22;31.90;;;24.10;68.10;;;;;;5071231;28;20374;-88
2022/12/01 06:55:25;;;;;;;8.63;3.58;;;24.00;67.80;;;;;;5064896;28;20391;-88
2022/12/01 06:57:53;;;;;;;7.50;3.25;;;23.90;67.50;;;;;;5056392;28;20398;-85
2022/12/01 07:00:20;;;;;;;5.55;2.10;;;23.80;68.20;;;;;;5066014;28;20423;-86
2022/12/01 07:02:47;;;;;;;5.47;2.05;;;23.60;67.90;;;;;;5058217;28;20386;-90
2022/12/01 07:05:14;;;;;;;6.82;2.10;;;23.40;69.10;;;;;;5048957;28;20403;-84
2022/12/01 07:07:43;;;;;;;5.25;1.90;;;23.20;69.50;;;;;;5062357;28;20381;-85
2022/12/01 07:10:13;;;;;;;5.45;1.90;;;23.00;70.40;;;;;;5069107;28;20400;-86
2022/12/01 07:12:41;;;;;;;5.47;1.80;;;23.10;71.00;;;;;;5057858;28;20380;-85
2022/12/01 07:15:09;;;;;;;6.90;1.95;;;23.00;70.90;;;;;;5064200;28;20409;-85
2022/12/01 07:17:37;;;;;;;6.90;1.80;;;22.90;70.90;;;;;;5067581;28;20388;-86
2022/12/01 07:20:05;;;;;;;5.25;1.90;;;22.90;71.00;;;;;;5062031;28;20381;-87
2022/12/01 07:22:32;;;;;;;6.00;1.80;;;22.70;70.80;;;;;;5054108;28;20390;-87
2022/12/01 07:24:59;;;;;;;5.32;1.80;;;22.80;71.60;;;;;;5060409;28;20412;-86
2022/12/01 07:27:29;;;;;;;5.63;1.55;;;22.90;71.60;;;;;;5063624;28;20378;-94
2022/12/01 07:29:57;;;;;;;5.20;1.75;;;23.20;70.30;;;;;;5073844;28;20450;-83
2022/12/01 07:32:24;;;;;;;5.60;1.70;;;23.30;70.20;;;;;;5058742;28;20417;-88
2022/12/01 07:34:51;;;;;;;5.05;1.65;;;23.60;69.00;;;;;;5058109;28;20441;-90
2022/12/01 07:37:18;;;;;;;4.28;1.60;;;23.70;68.40;;;;;;5049583;28;20869;-88
2022/12/01 07:39:45;;;;;;;7.43;1.80;;;23.60;68.30;;;;;;5059755;28;20386;-87
2022/12/01 07:42:12;;;;;;;5.60;1.60;;;23.50;68.60;;;;;;5057984;28;20511;-85
2022/12/01 07:44:39;;;;;;;4.13;1.30;;;23.40;68.00;;;;;;5059899;28;20406;-85
2022/12/01 07:47:06;;;;;;;3.65;1.30;;;23.20;68.10;;;;;;5058593;28;20430;-84
2022/12/01 07:49:33;;;;;;;3.33;1.30;;;23.20;68.80;;;;;;5055640;28;20483;-91
2022/12/01 07:52:00;;;;;;;3.55;1.20;;;23.10;68.10;;;;;;5049409;28;20379;-89
2022/12/01 07:54:27;;;;;;;3.85;1.20;;;23.00;67.70;;;;;;5068223;28;20378;-84
2022/12/01 07:56:54;;;;;;;6.88;1.63;;;22.80;68.70;;;;;;5053663;28;20373;-86
2022/12/01 07:59:21;;;;;;;4.38;1.60;;;22.70;69.10;;;;;;5068729;28;20382;-86
2022/12/01 08:01:48;;;;;;;3.90;1.35;;;22.50;69.90;;;;;;5060334;28;20388;-84
2022/12/01 08:04:15;;;;;;;4.25;1.42;;;22.20;70.90;;;;;;5055922;28;20433;-86
2022/12/01 08:06:42;;;;;;;4.95;1.50;;;21.90;72.00;;;;;;5075203;28;20432;-86
2022/12/01 08:09:10;;;;;;;5.10;1.60;;;21.60;73.00;;;;;;5072262;28;20413;-91
2022/12/01 08:11:59;;;;;;;5.70;1.65;;;21.40;74.00;;;;;;5040886;28;20433;-87
2022/12/01 08:14:26;;;;;;;6.00;1.80;;;21.20;75.10;;;;;;5069162;28;20380;-86
2022/12/01 08:16:59;;;;;;;6.47;1.90;;;21.10;75.80;;;;;;5078113;28;20381;-89
2022/12/01 08:19:28;;;;;;;5.18;1.73;;;20.90;76.50;;;;;;5054495;28;20374;-92
2022/12/01 08:21:57;;;;;;;4.93;1.75;;;20.70;77.10;;;;;;5066160;28;20495;-96
2022/12/01 08:24:24;;;;;;;7.10;1.70;;;20.60;77.80;;;;;;5056972;28;20401;-87
2022/12/01 08:26:51;;;;;;;5.60;2.03;;;20.40;78.10;;;;;;5063325;28;20386;-90
2022/12/01 08:29:18;;;;;;;6.18;1.80;;;20.20;79.10;;;;;;5065214;28;20388;-88
2022/12/01 08:31:45;;;;;;;9.10;3.22;;;20.00;79.60;;;;;;5062256;28;20377;-91
2022/12/01 08:34:12;;;;;;;14.13;7.47;;;19.90;80.40;;;;;;5036958;28;20381;-92
2022/12/01 08:36:39;;;;;;;7.25;2.53;;;19.70;81.20;;;;;;5067025;28;20389;-95
2022/12/01 08:39:08;;;;;;;8.25;2.20;;;19.60;81.70;;;;;;5069263;28;20377;-86
2022/12/01 08:41:35;;;;;;;6.88;2.30;;;19.40;82.10;;;;;;5044105;28;20471;-93
2022/12/01 08:44:02;;;;;;;10.57;4.22;;;19.30;83.30;;;;;;5067806;28;20398;-91
2022/12/01 08:46:32;;;;;;;10.93;4.32;;;19.30;84.20;;;;;;5069392;28;20397;-92
2022/12/01 08:48:59;;;;;;;8.83;2.40;;;19.10;84.50;;;;;;5067322;28;20420;-88
2022/12/01 08:51:29;;;;;;;8.52;2.05;;;19.00;85.10;;;;;;5069599;28;20390;-86
2022/12/01 08:53:57;;;;;;;12.52;4.03;;;18.90;85.60;;;;;;5059137;28;20391;-88
2022/12/01 08:56:34;;;;;;;7.97;2.25;;;18.90;86.50;;;;;;5068568;28;20943;-84
2022/12/01 08:59:04;;;;;;;7.85;2.38;;;18.80;87.10;;;;;;5059737;28;20381;-91
2022/12/01 09:01:33;;;;;;;7.82;1.92;;;18.70;88.70;;;;;;5066464;28;20390;-88
2022/12/01 09:04:07;;;;;;;6.22;1.95;;;18.70;89.00;;;;;;5061626;28;20459;-86
2022/12/01 09:06:50;;;;;;;6.50;1.90;;;18.70;89.80;;;;;;5065068;28;20879;-86
2022/12/01 09:09:23;;;;;;;6.25;2.20;;;18.70;90.10;;;;;;5038212;28;20433;-86
2022/12/01 09:11:51;;;;;;;6.82;2.05;;;18.60;90.70;;;;;;5056789;28;20397;-93
2022/12/01 09:14:22;;;;;;;5.82;2.20;;;18.60;90.90;;;;;;5061416;28;20389;-92
2022/12/01 09:16:51;;;;;;;8.13;2.08;;;18.60;91.50;;;;;;5050336;28;20388;-88
2022/12/01 09:19:19;;;;;;;8.98;2.20;;;18.60;91.90;;;;;;5042136;28;20374;-86
2022/12/01 09:21:47;;;;;;;8.70;2.25;;;18.60;92.80;;;;;;5053962;28;20866;-86
2022/12/01 09:24:17;;;;;;;9.38;2.30;;;18.50;93.30;;;;;;5070674;28;20886;-93
2022/12/01 09:26:44;;;;;;;7.75;2.22;;;18.40;94.10;;;;;;5055904;28;20398;-93
2022/12/01 09:29:16;;;;;;;9.38;2.47;;;18.40;95.00;;;;;;5071113;28;20366;-87
2022/12/01 09:31:45;;;;;;;9.30;2.30;;;18.40;95.60;;;;;;5070834;28;20496;-94
2022/12/01 09:34:15;;;;;;;10.32;2.40;;;18.40;96.40;;;;;;5039372;28;20924;-90
2022/12/01 09:36:42;;;;;;;9.48;2.60;;;18.30;97.00;;;;;;5067769;28;20409;-87
2022/12/01 09:39:13;;;;;;;9.18;2.35;;;18.30;97.60;;;;;;5066756;28;20381;-92
2022/12/01 09:41:44;;;;;;;8.43;2.50;;;18.20;98.30;;;;;;5051020;28;20387;-89
2022/12/01 09:44:23;;;;;;;9.18;2.40;;;18.20;99.20;;;;;;5070013;28;20455;-87
2022/12/01 09:46:57;;;;;;;9.97;2.60;;;18.10;99.80;;;;;;5054773;28;20394;-92
2022/12/01 09:49:43;;;;;;;10.13;2.80;;;18.10;99.90;;;;;;5071936;28;20542;-94
2022/12/01 09:52:18;;;;;;;9.77;2.80;;;18.10;99.90;;;;;;5057180;28;20378;-87
2022/12/01 09:54:48;;;;;;;10.60;2.50;;;18.10;99.90;;;;;;5038072;28;20990;-87
2022/12/01 09:57:36;;;;;;;10.50;2.70;;;18.00;99.90;;;;;;5076551;28;20394;-89
2022/12/01 10:00:21;;;;;;;9.43;2.63;;;18.00;99.90;;;;;;5078408;28;20401;-87
2022/12/01 10:02:53;;;;;;;8.77;2.70;;;17.90;99.90;;;;;;5051775;28;20379;-94
2022/12/01 10:05:23;;;;;;;10.95;2.70;;;17.90;99.90;;;;;;5069504;28;20406;-87
2022/12/01 10:08:04;;;;;;;9.10;2.60;;;17.80;99.90;;;;;;5071659;28;20362;-93
2022/12/01 10:10:37;;;;;;;9.98;2.40;;;17.80;99.90;;;;;;5063126;28;20809;-92
2022/12/01 10:13:20;;;;;;;8.25;2.17;;;17.70;99.90;;;;;;5072818;28;20892;-86
2022/12/01 10:16:04;;;;;;;9.18;2.53;;;17.60;99.90;;;;;;5070182;28;20382;-87
2022/12/01 10:18:35;;;;;;;10.07;2.80;;;17.60;99.90;;;;;;5067989;28;20387;-90
2022/12/01 10:21:39;;;;;;;11.20;3.80;;;17.60;99.90;;;;;;5061095;28;20391;-87
2022/12/01 10:24:29;;;;;;;11.60;3.80;;;17.50;99.90;;;;;;5043963;28;20402;-86
2022/12/01 10:27:45;;;;;;;10.48;3.30;;;17.50;99.90;;;;;;5062791;28;20466;-85
2022/12/01 10:30:23;;;;;;;9.27;2.83;;;16.70;99.90;;;;;;4982980;28;20405;-87
2022/12/01 10:32:59;;;;;;;8.40;2.20;;;17.40;99.90;;;;;;4977591;28;20387;-86
2022/12/01 10:35:34;;;;;;;9.63;2.60;;;17.30;99.90;;;;;;4975836;28;20391;-85
2022/12/01 10:38:18;;;;;;;10.65;2.63;;;17.20;99.90;;;;;;4975425;28;20414;-89
2022/12/01 10:40:46;;;;;;;10.13;2.70;;;17.20;99.90;;;;;;4974253;28;20513;-85
2022/12/01 10:43:13;;;;;;;8.05;2.60;;;17.20;99.90;;;;;;4975664;28;20408;-86
2022/12/01 10:45:44;;;;;;;10.70;2.58;;;17.10;99.90;;;;;;4983958;28;20505;-91
2022/12/01 10:48:21;;;;;;;9.85;2.60;;;17.10;99.90;;;;;;4982976;28;20522;-93
2022/12/01 10:50:50;;;;;;;14.30;2.88;;;17.10;99.90;;;;;;4976460;28;20918;-94
2022/12/01 10:53:27;;;;;;;11.33;2.50;;;17.10;99.90;;;;;;4979467;28;20400;-91
2022/12/01 10:56:17;;;;;;;9.50;2.50;;;17.10;99.90;;;;;;4973411;28;20390;-92
2022/12/01 10:58:59;;;;;;;9.65;2.60;;;17.00;99.90;;;;;;4957037;28;20480;-92
2022/12/01 11:01:30;;;;;;;11.80;2.78;;;17.00;99.90;;;;;;4955402;29;20392;-88
2022/12/01 11:04:07;;;;;;;10.95;2.78;;;17.00;99.90;;;;;;4955179;28;20414;-87
2022/12/01 11:06:35;;;;;;;11.43;2.70;;;16.90;99.90;;;;;;4982522;28;20442;-88
2022/12/01 11:09:16;;;;;;;10.93;2.88;;;16.90;99.90;;;;;;5011356;28;20415;-91
2022/12/01 11:11:43;;;;;;;10.65;2.55;;;16.90;99.90;;;;;;5014274;28;20405;-86
2022/12/01 11:14:21;;;;;;;11.95;2.88;;;16.90;99.90;;;;;;5014753;28;20399;-89
2022/12/01 11:16:51;;;;;;;11.30;2.80;;;16.80;99.90;;;;;;5016295;28;20399;-89
2022/12/01 11:19:33;;;;;;;11.73;2.53;;;16.80;99.90;;;;;;5025888;28;20390;-87
2022/12/01 11:22:17;;;;;;;10.87;2.60;;;16.80;99.90;;;;;;5031242;28;20437;-86
2022/12/01 11:24:57;;;;;;;11.23;2.88;;;16.70;99.90;;;;;;5024164;28;20572;-90
2022/12/01 11:27:30;;;;;;;13.23;2.95;;;16.70;99.90;;;;;;5012286;28;20529;-89
2022/12/01 11:30:14;;;;;;;8.20;2.50;;;16.70;99.90;;;;;;5027589;28;20418;-89
2022/12/01 11:32:54;;;;;;;10.43;3.28;;;16.60;99.90;;;;;;5021794;28;20400;-86
2022/12/01 11:35:25;;;;;;;11.05;3.03;;;16.60;99.90;;;;;;5022682;28;20492;-85
2022/12/01 11:37:58;;;;;;;16.63;3.60;;;16.50;99.90;;;;;;5022344;28;20388;-85
2022/12/01 11:40:35;;;;;;;14.02;3.63;;;16.50;99.90;;;;;;5024399;28;20378;-90
2022/12/01 11:43:05;;;;;;;15.43;3.53;;;16.50;99.90;;;;;;5016329;28;20401;-90
2022/12/01 11:45:39;;;;;;;13.85;3.30;;;16.40;99.90;;;;;;5016603;28;20403;-86
2022/12/01 11:48:16;;;;;;;10.35;2.90;;;16.40;99.90;;;;;;5012019;28;20743;-84
2022/12/01 11:50:59;;;;;;;14.63;3.00;;;16.40;99.90;;;;;;5020915;28;20398;-88
2022/12/01 11:53:32;;;;;;;11.93;2.85;;;16.40;99.90;;;;;;5024080;28;20426;-92
2022/12/01 11:56:22;;;;;;;11.75;2.85;;;16.40;99.90;;;;;;5034905;28;20468;-90
2022/12/01 11:59:04;;;;;;;10.80;2.80;;;16.30;99.90;;;;;;5060910;28;20422;-88
2022/12/01 12:01:51;;;;;;;14.25;2.78;;;16.30;99.90;;;;;;5047929;28;20475;-87
2022/12/01 12:04:42;;;;;;;14.68;2.92;;;16.30;99.90;;;;;;5068038;28;20412;-85
2022/12/01 12:07:34;;;;;;;14.25;2.83;;;16.30;99.90;;;;;;5062739;28;20365;-85
2022/12/01 12:10:37;;;;;;;14.85;2.70;;;16.20;99.90;;;;;;5060536;28;20381;-86
2022/12/01 12:13:26;;;;;;;12.73;2.60;;;16.20;99.90;;;;;;5067247;28;20397;-87
2022/12/01 12:16:17;;;;;;;11.52;2.75;;;16.20;99.90;;;;;;5056296;28;20380;-89
2022/12/01 12:19:03;;;;;;;13.38;2.85;;;16.10;99.90;;;;;;5062628;28;20386;-89
2022/12/01 12:21:35;;;;;;;9.85;2.78;;;16.10;99.90;;;;;;5053896;28;20378;-87
2022/12/01 12:24:31;;;;;;;10.48;2.47;;;16.00;99.90;;;;;;5058711;28;20434;-86
2022/12/01 12:27:03;;;;;;;14.23;2.67;;;16.00;99.90;;;;;;5052505;28;20446;-87
2022/12/01 12:29:36;;;;;;;15.50;2.80;;;16.00;99.90;;;;;;5058118;28;20419;-86
2022/12/01 12:32:18;;;;;;;10.57;2.70;;;15.90;99.90;;;;;;5066888;28;20799;-88
2022/12/01 12:34:48;;;;;;;11.27;2.53;;;15.90;99.90;;;;;;5060796;28;20372;-88
2022/12/01 12:37:36;;;;;;;20.23;3.00;;;15.80;99.90;;;;;;5065514;28;20437;-86
2022/12/01 12:40:23;;;;;;;14.27;2.90;;;15.80;99.90;;;;;;5066781;28;20873;-86
2022/12/01 12:43:05;;;;;;;15.82;3.28;;;15.80;99.90;;;;;;5045590;28;20457;-86
2022/12/01 12:45:35;;;;;;;16.15;3.03;;;15.80;99.90;;;;;;5063844;28;21038;-88
2022/12/01 12:48:08;;;;;;;20.20;3.42;;;15.70;99.90;;;;;;5046395;28;20463;-92
2022/12/01 12:50:59;;;;;;;20.02;3.22;;;15.80;99.90;;;;;;5047855;28;20396;-89
2022/12/01 12:53:34;;;;;;;19.70;3.25;;;15.90;99.90;;;;;;5048582;28;20471;-86
2022/12/01 12:56:06;;;;;;;20.58;3.42;;;15.90;99.90;;;;;;5057986;28;20469;-89
2022/12/01 12:58:41;;;;;;;22.02;3.60;;;16.00;99.90;;;;;;5067516;28;20504;-86
2022/12/01 13:01:26;;;;;;;19.60;3.65;;;16.00;99.90;;;;;;5055524;28;20444;-85
2022/12/01 13:04:23;;;;;;;25.15;4.40;;;16.00;99.90;;;;;;5049389;28;20391;-90
2022/12/01 13:07:06;;;;;;;22.20;4.03;;;16.00;99.90;;;;;;5063894;28;20386;-86
2022/12/01 13:09:41;;;;;;;27.70;4.50;;;16.00;99.90;;;;;;5066316;28;20381;-92
2022/12/01 13:12:14;;;;;;;23.27;4.03;;;16.00;99.90;;;;;;5054543;28;20794;-88
2022/12/01 13:14:47;;;;;;;23.40;4.10;;;16.10;99.90;;;;;;5064198;28;20396;-89